createdAt,value
2023-04-16T00:00:29.654Z,101445.41
2023-04-16T00:01:32.581Z,101438.38
2023-04-16T00:02:37.125Z,101441.47
2023-04-16T00:03:39.812Z,101438.00
2023-04-16T00:04:44.565Z,101439.31
2023-04-16T00:05:47.403Z,101442.56
2023-04-16T00:06:52.475Z,101446.06
2023-04-16T00:07:55.500Z,101445.59
2023-04-16T00:09:00.414Z,101440.56
2023-04-16T00:10:04.100Z,101448.41
2023-04-16T00:11:09.592Z,101447.06
2023-04-16T00:12:12.793Z,101443.88
2023-04-16T00:13:18.243Z,101446.88
2023-04-16T00:14:20.924Z,101447.38
2023-04-16T00:15:25.552Z,101452.34
2023-04-16T00:16:28.439Z,101454.66
2023-04-16T00:17:33.001Z,101456.31
2023-04-16T00:18:36.325Z,101447.47
2023-04-16T00:19:40.585Z,101445.63
2023-04-16T00:20:45.410Z,101448.53
2023-04-16T00:21:49.144Z,101446.00
2023-04-16T00:22:56.428Z,101448.97
2023-04-16T00:24:00.692Z,101439.56
2023-04-16T00:25:06.431Z,101455.66
2023-04-16T00:26:10.650Z,101456.72
2023-04-16T00:27:13.613Z,101453.94
2023-04-16T00:28:18.695Z,101455.78
2023-04-16T00:29:22.791Z,101450.47
2023-04-16T00:30:25.203Z,101452.38
2023-04-16T00:31:30.692Z,101444.94
2023-04-16T00:32:33.331Z,101444.19
2023-04-16T00:33:36.895Z,101445.59
2023-04-16T00:34:39.877Z,101448.22
2023-04-16T00:35:43.491Z,101452.00
2023-04-16T00:36:46.377Z,101447.19
2023-04-16T00:37:49.981Z,101452.66
2023-04-16T00:38:52.491Z,101456.81
2023-04-16T00:39:56.446Z,101450.31
2023-04-16T00:40:59.868Z,101448.31
2023-04-16T00:42:03.814Z,101449.81
2023-04-16T00:43:06.807Z,101452.38
2023-04-16T00:44:12.354Z,101450.03
2023-04-16T00:45:15.267Z,101449.09
2023-04-16T00:46:20.334Z,101452.66
2023-04-16T00:47:23.428Z,101445.41
2023-04-16T00:48:28.703Z,101442.50
2023-04-16T00:49:31.881Z,101451.91
2023-04-16T00:50:36.105Z,101456.47
2023-04-16T00:51:38.709Z,101446.09
2023-04-16T00:52:42.492Z,101448.25
2023-04-16T00:53:46.837Z,101446.44
2023-04-16T00:54:50.872Z,101443.13
2023-04-16T00:55:54.090Z,101444.25
2023-04-16T00:56:59.076Z,101437.50
2023-04-16T00:58:01.992Z,101432.75
2023-04-16T00:59:07.311Z,101437.06
2023-04-16T01:00:13.839Z,101436.63
2023-04-16T01:01:17.797Z,101439.25
2023-04-16T01:02:20.466Z,101430.38
2023-04-16T01:03:24.889Z,101421.25
2023-04-16T01:04:28.399Z,101436.16
2023-04-16T01:05:33.937Z,101434.94
2023-04-16T01:06:37.145Z,101434.00
2023-04-16T01:07:40.610Z,101428.16
2023-04-16T01:08:43.632Z,101437.41
2023-04-16T01:09:47.291Z,101434.41
2023-04-16T01:10:49.689Z,101428.78
2023-04-16T01:11:53.337Z,101439.13
2023-04-16T01:12:55.894Z,101435.63
2023-04-16T01:13:59.158Z,101434.25
2023-04-16T01:15:01.715Z,101431.56
2023-04-16T01:16:07.455Z,101432.84
2023-04-16T01:17:10.048Z,101436.16
2023-04-16T01:18:17.109Z,101431.03
2023-04-16T01:19:19.323Z,101435.94
2023-04-16T01:20:22.755Z,101426.59
2023-04-16T01:21:26.704Z,101425.53
2023-04-16T01:22:30.066Z,101418.50
2023-04-16T01:23:32.635Z,101423.53
2023-04-16T01:24:36.961Z,101423.97
2023-04-16T01:25:39.557Z,101424.28
2023-04-16T01:26:43.241Z,101430.03
2023-04-16T01:27:45.918Z,101427.84
2023-04-16T01:28:49.428Z,101423.53
2023-04-16T01:29:51.777Z,101426.94
2023-04-16T01:30:55.048Z,101423.19
2023-04-16T01:31:57.477Z,101425.91
2023-04-16T01:33:01.110Z,101432.44
2023-04-16T01:34:03.423Z,101432.97
2023-04-16T01:35:07.537Z,101425.44
2023-04-16T01:36:18.709Z,101426.25
2023-04-16T01:37:22.785Z,101430.34
2023-04-16T01:38:44.730Z,101427.50
2023-04-16T01:39:47.418Z,101430.94
2023-04-16T01:40:51.592Z,101430.81
2023-04-16T01:41:55.074Z,101438.34
2023-04-16T01:42:59.530Z,101435.16
2023-04-16T01:44:02.028Z,101436.97
2023-04-16T01:45:06.630Z,101434.34
2023-04-16T01:46:15.208Z,101434.78
2023-04-16T01:47:18.778Z,101440.06
2023-04-16T01:48:21.340Z,101442.19
2023-04-16T01:49:25.112Z,101440.50
2023-04-16T01:50:27.646Z,101441.28
2023-04-16T01:51:31.381Z,101452.13
2023-04-16T01:52:33.720Z,101451.09
2023-04-16T01:53:37.513Z,101441.88
2023-04-16T01:54:41.810Z,101442.91
2023-04-16T01:55:45.149Z,101451.00
2023-04-16T01:56:47.948Z,101452.00
2023-04-16T01:57:52.233Z,101447.56
2023-04-16T01:58:54.681Z,101454.41
2023-04-16T01:59:58.434Z,101451.22
2023-04-16T02:01:01.080Z,101446.31
2023-04-16T02:02:11.328Z,101442.91
2023-04-16T02:03:13.972Z,101447.09
2023-04-16T02:04:17.947Z,101441.06
2023-04-16T02:05:20.803Z,101445.84
2023-04-16T02:06:24.794Z,101451.00
2023-04-16T02:07:27.678Z,101456.22
2023-04-16T02:08:31.359Z,101446.28
2023-04-16T02:09:37.113Z,101448.69
2023-04-16T02:10:41.962Z,101445.13
2023-04-16T02:11:44.331Z,101448.66
2023-04-16T02:12:47.975Z,101448.75
2023-04-16T02:13:50.413Z,101453.91
2023-04-16T02:14:53.762Z,101458.13
2023-04-16T02:15:56.233Z,101458.38
2023-04-16T02:16:59.917Z,101455.88
2023-04-16T02:18:02.892Z,101458.06
2023-04-16T02:19:07.286Z,101458.75
2023-04-16T02:20:10.994Z,101460.47
2023-04-16T02:21:14.907Z,101460.09
2023-04-16T02:22:17.522Z,101455.22
2023-04-16T02:23:21.579Z,101451.97
2023-04-16T02:24:24.308Z,101456.09
2023-04-16T02:25:27.949Z,101463.97
2023-04-16T02:26:31.577Z,101474.81
2023-04-16T02:27:35.019Z,101477.34
2023-04-16T02:28:37.776Z,101457.31
2023-04-16T02:29:42.499Z,101464.19
2023-04-16T02:30:45.902Z,101464.94
2023-04-16T02:31:50.412Z,101470.16
2023-04-16T02:32:53.306Z,101471.81
2023-04-16T02:33:56.924Z,101474.44
2023-04-16T02:34:59.458Z,101478.78
2023-04-16T02:36:02.994Z,101471.78
2023-04-16T02:37:05.603Z,101465.41
2023-04-16T02:38:10.165Z,101472.66
2023-04-16T02:39:12.833Z,101476.72
2023-04-16T02:40:16.733Z,101470.28
2023-04-16T02:41:19.422Z,101471.31
2023-04-16T02:42:24.493Z,101483.94
2023-04-16T02:43:27.749Z,101483.47
2023-04-16T02:44:31.908Z,101474.72
2023-04-16T02:45:34.864Z,101472.06
2023-04-16T02:46:38.310Z,101475.16
2023-04-16T02:47:41.718Z,101477.44
2023-04-16T02:48:46.424Z,101475.28
2023-04-16T02:49:49.046Z,101482.34
2023-04-16T02:50:52.634Z,101483.91
2023-04-16T02:51:55.293Z,101484.63
2023-04-16T02:52:59.199Z,101484.28
2023-04-16T02:54:03.273Z,101478.22
2023-04-16T02:55:07.511Z,101474.13
2023-04-16T02:56:10.225Z,101473.13
2023-04-16T02:57:13.715Z,101475.38
2023-04-16T02:58:17.570Z,101478.31
2023-04-16T02:59:22.071Z,101469.56
2023-04-16T03:00:25.763Z,101467.75
2023-04-16T03:01:29.153Z,101472.19
2023-04-16T03:02:32.970Z,101475.13
2023-04-16T03:03:36.990Z,101468.44
2023-04-16T03:04:39.914Z,101468.72
2023-04-16T03:05:43.583Z,101466.50
2023-04-16T03:06:46.396Z,101467.16
2023-04-16T03:07:50.947Z,101467.38
2023-04-16T03:08:53.684Z,101472.34
2023-04-16T03:09:57.376Z,101466.31
2023-04-16T03:11:00.170Z,101465.03
2023-04-16T03:12:03.754Z,101472.50
2023-04-16T03:13:06.297Z,101470.34
2023-04-16T03:14:11.294Z,101473.84
2023-04-16T03:15:13.670Z,101468.72
2023-04-16T03:16:18.244Z,101464.09
2023-04-16T03:17:21.070Z,101467.72
2023-04-16T03:18:24.307Z,101475.91
2023-04-16T03:19:26.820Z,101473.09
2023-04-16T03:20:30.175Z,101464.31
2023-04-16T03:21:32.714Z,101470.25
2023-04-16T03:22:37.082Z,101467.41
2023-04-16T03:23:39.547Z,101463.97
2023-04-16T03:24:43.286Z,101470.03
2023-04-16T03:25:48.268Z,101473.56
2023-04-16T03:26:51.927Z,101466.16
2023-04-16T03:27:54.264Z,101471.75
2023-04-16T03:28:57.719Z,101467.97
2023-04-16T03:30:01.726Z,101460.78
2023-04-16T03:31:05.394Z,101467.72
2023-04-16T03:32:08.104Z,101459.53
2023-04-16T03:33:11.724Z,101456.91
2023-04-16T03:34:14.075Z,101467.84
2023-04-16T03:35:17.390Z,101458.25
2023-04-16T03:36:20.958Z,101465.50
2023-04-16T03:37:23.386Z,101461.22
2023-04-16T03:38:27.246Z,101462.47
2023-04-16T03:39:29.442Z,101465.22
2023-04-16T03:40:32.946Z,101469.66
2023-04-16T03:41:35.317Z,101463.88
2023-04-16T03:42:38.922Z,101469.22
2023-04-16T03:43:41.362Z,101467.50
2023-04-16T03:44:44.856Z,101461.13
2023-04-16T03:45:48.826Z,101463.75
2023-04-16T03:46:52.369Z,101462.94
2023-04-16T03:47:54.721Z,101465.34
2023-04-16T03:48:58.085Z,101462.59
2023-04-16T03:50:00.728Z,101459.84
2023-04-16T03:51:04.126Z,101459.19
2023-04-16T03:52:06.574Z,101453.00
2023-04-16T03:53:10.265Z,101455.41
2023-04-16T03:54:12.911Z,101456.31
2023-04-16T03:55:16.527Z,101459.38
2023-04-16T03:56:19.252Z,101457.22
2023-04-16T03:57:22.651Z,101455.75
2023-04-16T03:58:25.154Z,101461.59
2023-04-16T03:59:28.572Z,101460.31
2023-04-16T04:00:31.612Z,101462.72
2023-04-16T04:01:36.965Z,101462.94
2023-04-16T04:02:39.884Z,101465.19
2023-04-16T04:03:43.710Z,101459.53
2023-04-16T04:04:46.759Z,101459.63
2023-04-16T04:05:50.582Z,101459.78
2023-04-16T04:06:52.949Z,101463.19
2023-04-16T04:07:56.653Z,101466.50
2023-04-16T04:08:59.209Z,101462.50
2023-04-16T04:10:03.101Z,101468.72
2023-04-16T04:11:05.818Z,101468.13
2023-04-16T04:12:10.232Z,101468.00
2023-04-16T04:13:12.699Z,101468.84
2023-04-16T04:14:16.143Z,101464.19
2023-04-16T04:15:18.613Z,101468.50
2023-04-16T04:16:22.105Z,101459.56
2023-04-16T04:17:26.007Z,101462.91
2023-04-16T04:18:29.685Z,101459.66
2023-04-16T04:19:32.039Z,101464.34
2023-04-16T04:20:35.336Z,101467.44
2023-04-16T04:21:37.943Z,101463.69
2023-04-16T04:22:41.639Z,101466.81
2023-04-16T04:23:44.060Z,101470.06
2023-04-16T04:24:47.484Z,101470.88
2023-04-16T04:25:50.131Z,101475.34
2023-04-16T04:26:53.649Z,101473.81
2023-04-16T04:27:57.075Z,101474.34
2023-04-16T04:28:59.408Z,101464.03
2023-04-16T04:30:03.714Z,101466.72
2023-04-16T04:31:06.407Z,101462.53
2023-04-16T04:32:09.932Z,101467.25
2023-04-16T04:33:15.354Z,101467.00
2023-04-16T04:34:18.743Z,101468.56
2023-04-16T04:35:21.194Z,101465.84
2023-04-16T04:36:24.638Z,101471.03
2023-04-16T04:37:27.027Z,101468.00
2023-04-16T04:38:31.387Z,101469.13
2023-04-16T04:39:34.072Z,101471.03
2023-04-16T04:40:37.737Z,101468.03
2023-04-16T04:41:40.810Z,101472.50
2023-04-16T04:42:44.410Z,101465.06
2023-04-16T04:43:47.030Z,101471.91
2023-04-16T04:44:50.747Z,101474.16
2023-04-16T04:45:53.440Z,101468.25
2023-04-16T04:46:57.117Z,101477.28
2023-04-16T04:47:59.516Z,101469.47
2023-04-16T04:49:05.197Z,101471.81
2023-04-16T04:50:08.491Z,101471.03
2023-04-16T04:51:12.057Z,101473.25
2023-04-16T04:52:15.015Z,101473.13
2023-04-16T04:53:18.404Z,101472.78
2023-04-16T04:54:20.715Z,101476.06
2023-04-16T04:55:24.248Z,101479.47
2023-04-16T04:56:26.640Z,101473.13
2023-04-16T04:57:30.526Z,101472.53
2023-04-16T04:58:32.818Z,101476.25
2023-04-16T04:59:36.871Z,101479.50
2023-04-16T05:00:39.450Z,101474.41
2023-04-16T05:01:42.992Z,101481.09
2023-04-16T05:02:45.891Z,101486.97
2023-04-16T05:03:49.417Z,101491.84
2023-04-16T05:04:53.807Z,101484.00
2023-04-16T05:05:57.350Z,101491.91
2023-04-16T05:06:59.805Z,101489.88
2023-04-16T05:08:03.296Z,101489.19
2023-04-16T05:09:06.047Z,101488.50
2023-04-16T05:10:10.979Z,101485.84
2023-04-16T05:11:13.463Z,101486.56
2023-04-16T05:12:16.797Z,101489.03
2023-04-16T05:13:19.171Z,101484.88
2023-04-16T05:14:22.677Z,101486.56
2023-04-16T05:15:25.008Z,101491.81
2023-04-16T05:16:28.825Z,101492.09
2023-04-16T05:17:31.579Z,101489.91
2023-04-16T05:18:34.897Z,101483.34
2023-04-16T05:19:37.161Z,101490.63
2023-04-16T05:20:42.227Z,101483.22
2023-04-16T05:21:44.591Z,101482.66
2023-04-16T05:22:48.145Z,101486.78
2023-04-16T05:23:50.508Z,101492.78
2023-04-16T05:24:54.449Z,101483.25
2023-04-16T05:25:57.011Z,101490.03
2023-04-16T05:27:00.511Z,101485.63
2023-04-16T05:28:03.191Z,101496.41
2023-04-16T05:29:06.824Z,101497.09
2023-04-16T05:30:10.148Z,101501.38
2023-04-16T05:31:14.197Z,101493.59
2023-04-16T05:32:17.357Z,101498.56
2023-04-16T05:33:21.388Z,101495.75
2023-04-16T05:34:25.408Z,101502.78
2023-04-16T05:35:29.293Z,101499.78
2023-04-16T05:36:33.198Z,101495.41
2023-04-16T05:37:36.624Z,101494.50
2023-04-16T05:38:39.289Z,101494.66
2023-04-16T05:39:42.820Z,101497.94
2023-04-16T05:40:45.148Z,101497.44
2023-04-16T05:41:48.681Z,101494.03
2023-04-16T05:42:51.213Z,101500.03
2023-04-16T05:43:54.541Z,101500.53
2023-04-16T05:44:56.833Z,101497.13
2023-04-16T05:46:00.356Z,101500.00
2023-04-16T05:47:02.745Z,101500.66
2023-04-16T05:48:06.396Z,101502.44
2023-04-16T05:49:09.084Z,101501.75
2023-04-16T05:50:13.198Z,101504.66
2023-04-16T05:51:15.674Z,101495.38
2023-04-16T05:52:20.973Z,101499.94
2023-04-16T05:53:23.947Z,101502.91
2023-04-16T05:54:27.318Z,101498.16
2023-04-16T05:55:30.818Z,101503.78
2023-04-16T05:56:34.348Z,101506.88
2023-04-16T05:57:36.868Z,101500.91
2023-04-16T05:58:40.240Z,101500.63
2023-04-16T05:59:42.615Z,101509.44
2023-04-16T06:00:46.475Z,101512.53
2023-04-16T06:01:49.054Z,101508.66
2023-04-16T06:02:53.183Z,101514.13
2023-04-16T06:03:56.130Z,101515.47
2023-04-16T06:04:59.799Z,101509.56
2023-04-16T06:06:03.095Z,101511.84
2023-04-16T06:07:07.269Z,101511.75
2023-04-16T06:08:11.800Z,101508.78
2023-04-16T06:09:15.964Z,101500.94
2023-04-16T06:10:18.582Z,101504.38
2023-04-16T06:11:22.483Z,101503.91
2023-04-16T06:12:26.866Z,101500.59
2023-04-16T06:13:29.636Z,101502.25
2023-04-16T06:14:33.309Z,101496.25
2023-04-16T06:15:35.842Z,101489.94
2023-04-16T06:16:39.411Z,101499.06
2023-04-16T06:17:42.320Z,101506.28
2023-04-16T06:18:46.125Z,101502.88
2023-04-16T06:19:48.892Z,101506.63
2023-04-16T06:20:53.014Z,101500.78
2023-04-16T06:21:56.754Z,101497.13
2023-04-16T06:22:59.154Z,101495.94
2023-04-16T06:24:04.240Z,101491.22
2023-04-16T06:25:07.613Z,101493.16
2023-04-16T06:26:12.321Z,101494.38
2023-04-16T06:27:14.904Z,101497.94
2023-04-16T06:28:19.675Z,101498.84
2023-04-16T06:29:25.914Z,101497.59
2023-04-16T06:30:37.248Z,101496.34
2023-04-16T06:31:39.983Z,101495.69
2023-04-16T06:32:44.608Z,101490.56
2023-04-16T06:33:47.702Z,101493.09
2023-04-16T06:34:51.397Z,101499.91
2023-04-16T06:35:53.971Z,101498.00
2023-04-16T06:36:57.618Z,101497.06
2023-04-16T06:38:00.183Z,101507.63
2023-04-16T06:39:05.351Z,101509.16
2023-04-16T06:40:09.104Z,101511.22
2023-04-16T06:41:12.723Z,101514.41
2023-04-16T06:42:15.365Z,101510.47
2023-04-16T06:43:19.514Z,101510.63
2023-04-16T06:44:22.057Z,101512.13
2023-04-16T06:45:26.140Z,101513.22
2023-04-16T06:46:28.780Z,101511.47
2023-04-16T06:47:32.624Z,101514.09
2023-04-16T06:48:36.003Z,101517.91
2023-04-16T06:49:40.239Z,101513.06
2023-04-16T06:50:43.094Z,101501.81
2023-04-16T06:51:47.372Z,101503.72
2023-04-16T06:52:50.196Z,101503.50
2023-04-16T06:53:53.670Z,101508.59
2023-04-16T06:54:58.087Z,101510.09
2023-04-16T06:56:01.580Z,101511.53
2023-04-16T06:57:04.452Z,101515.66
2023-04-16T06:58:07.834Z,101515.31
2023-04-16T06:59:11.584Z,101516.25
2023-04-16T07:00:14.569Z,101522.03
2023-04-16T07:01:18.849Z,101521.66
2023-04-16T07:02:21.554Z,101518.53
2023-04-16T07:03:25.092Z,101515.69
2023-04-16T07:04:27.646Z,101521.31
2023-04-16T07:05:30.983Z,101512.69
2023-04-16T07:06:33.278Z,101514.25
2023-04-16T07:07:37.310Z,101518.09
2023-04-16T07:08:39.644Z,101523.97
2023-04-16T07:09:43.134Z,101523.97
2023-04-16T07:10:46.859Z,101522.91
2023-04-16T07:11:50.625Z,101521.88
2023-04-16T07:12:52.928Z,101516.66
2023-04-16T07:13:57.811Z,101518.25
2023-04-16T07:15:00.274Z,101516.16
2023-04-16T07:16:03.714Z,101520.91
2023-04-16T07:17:06.363Z,101516.03
2023-04-16T07:18:10.216Z,101516.53
2023-04-16T07:19:12.543Z,101516.63
2023-04-16T07:20:16.618Z,101522.22
2023-04-16T07:21:19.254Z,101516.06
2023-04-16T07:22:22.813Z,101525.56
2023-04-16T07:23:25.818Z,101521.25
2023-04-16T07:24:29.206Z,101523.16
2023-04-16T07:25:31.555Z,101515.81
2023-04-16T07:26:36.788Z,101519.25
2023-04-16T07:27:39.515Z,101518.22
2023-04-16T07:28:43.128Z,101523.97
2023-04-16T07:29:46.524Z,101521.81
2023-04-16T07:30:50.303Z,101520.69
2023-04-16T07:31:52.663Z,101523.59
2023-04-16T07:32:56.624Z,101514.78
2023-04-16T07:33:59.889Z,101509.50
2023-04-16T07:35:04.202Z,101508.34
2023-04-16T07:36:08.007Z,101507.78
2023-04-16T07:37:10.678Z,101508.44
2023-04-16T07:38:14.824Z,101514.69
2023-04-16T07:39:17.233Z,101512.03
2023-04-16T07:40:20.689Z,101513.91
2023-04-16T07:41:24.485Z,101516.16
2023-04-16T07:42:29.705Z,101510.53
2023-04-16T07:43:32.132Z,101516.88
2023-04-16T07:44:35.655Z,101513.59
2023-04-16T07:45:38.320Z,101521.28
2023-04-16T07:46:46.972Z,101527.31
2023-04-16T07:47:51.205Z,101528.69
2023-04-16T07:48:53.913Z,101531.38
2023-04-16T07:49:57.454Z,101523.56
2023-04-16T07:51:00.172Z,101521.19
2023-04-16T07:52:04.646Z,101526.41
2023-04-16T07:53:08.701Z,101526.03
2023-04-16T07:54:11.336Z,101520.69
2023-04-16T07:55:15.059Z,101523.94
2023-04-16T07:56:17.368Z,101528.31
2023-04-16T07:57:21.310Z,101529.31
2023-04-16T07:58:26.747Z,101539.13
2023-04-16T07:59:30.756Z,101527.78
2023-04-16T08:00:33.489Z,101532.69
2023-04-16T08:01:37.109Z,101528.94
2023-04-16T08:02:40.883Z,101532.56
2023-04-16T08:03:44.013Z,101530.91
2023-04-16T08:04:47.892Z,101522.25
2023-04-16T08:05:50.564Z,101519.19
2023-04-16T08:06:54.548Z,101529.81
2023-04-16T08:07:57.058Z,101527.91
2023-04-16T08:09:00.455Z,101529.88
2023-04-16T08:10:03.692Z,101517.66
2023-04-16T08:11:08.294Z,101519.94
2023-04-16T08:12:11.416Z,101521.78
2023-04-16T08:13:15.133Z,101520.69
2023-04-16T08:14:20.771Z,101523.47
2023-04-16T08:15:23.436Z,101525.66
2023-04-16T08:16:26.845Z,101524.94
2023-04-16T08:17:30.761Z,101529.22
2023-04-16T08:18:34.946Z,101535.63
2023-04-16T08:19:37.460Z,101533.50
2023-04-16T08:20:41.026Z,101526.22
2023-04-16T08:21:43.880Z,101523.13
2023-04-16T08:22:47.927Z,101526.53
2023-04-16T08:23:50.947Z,101524.84
2023-04-16T08:24:54.677Z,101532.50
2023-04-16T08:25:59.646Z,101527.25
2023-04-16T08:27:11.444Z,101533.81
2023-04-16T08:28:22.608Z,101529.47
2023-04-16T08:29:26.741Z,101532.50
2023-04-16T08:30:30.196Z,101544.03
2023-04-16T08:31:34.155Z,101544.53
2023-04-16T08:32:38.563Z,101550.78
2023-04-16T08:33:43.631Z,101547.00
2023-04-16T08:34:55.619Z,101554.19
2023-04-16T08:35:59.359Z,101552.13
2023-04-16T08:37:01.977Z,101548.38
2023-04-16T08:38:07.567Z,101560.81
2023-04-16T08:39:10.168Z,101559.38
2023-04-16T08:40:14.851Z,101552.25
2023-04-16T08:41:17.369Z,101554.16
2023-04-16T08:42:26.593Z,101550.94
2023-04-16T08:43:33.768Z,101551.66
2023-04-16T08:44:43.091Z,101557.59
2023-04-16T08:45:49.350Z,101552.25
2023-04-16T08:46:57.390Z,101550.28
2023-04-16T08:48:02.164Z,101568.78
2023-04-16T08:49:08.319Z,101563.44
2023-04-16T08:50:14.760Z,101568.31
2023-04-16T08:51:20.847Z,101567.19
2023-04-16T08:52:26.280Z,101573.75
2023-04-16T08:54:00.605Z,101573.91
2023-04-16T08:55:07.247Z,101572.88
2023-04-16T08:56:14.490Z,101577.00
2023-04-16T08:57:20.254Z,101572.59
2023-04-16T08:58:24.863Z,101573.81
2023-04-16T08:59:28.990Z,101563.16
2023-04-16T09:00:35.707Z,101571.81
2023-04-16T09:01:39.842Z,101564.88
2023-04-16T09:02:44.180Z,101573.88
2023-04-16T09:03:48.791Z,101570.28
2023-04-16T09:04:54.086Z,101576.94
2023-04-16T09:05:59.324Z,101579.00
2023-04-16T09:07:06.044Z,101575.88
2023-04-16T09:08:08.784Z,101586.38
2023-04-16T09:09:14.013Z,101584.34
2023-04-16T09:10:16.641Z,101587.13
2023-04-16T09:11:20.337Z,101583.66
2023-04-16T09:12:24.242Z,101585.66
2023-04-16T09:13:28.458Z,101583.25
2023-04-16T09:14:31.540Z,101582.13
2023-04-16T09:15:37.837Z,101580.97
2023-04-16T09:16:42.513Z,101573.28
2023-04-16T09:17:46.329Z,101571.34
2023-04-16T09:18:49.006Z,101572.31
2023-04-16T09:19:52.558Z,101566.59
2023-04-16T09:20:57.304Z,101566.50
2023-04-16T09:21:59.709Z,101571.97
2023-04-16T09:23:03.768Z,101573.13
2023-04-16T09:24:08.372Z,101581.59
2023-04-16T09:25:12.296Z,101574.69
2023-04-16T09:26:14.641Z,101580.22
2023-04-16T09:27:19.260Z,101588.78
2023-04-16T09:28:41.350Z,101585.97
2023-04-16T09:29:45.852Z,101582.44
2023-04-16T09:30:50.796Z,101577.53
2023-04-16T09:32:03.208Z,101572.75
2023-04-16T09:33:22.609Z,101574.06
2023-04-16T09:34:25.800Z,101566.31
2023-04-16T09:35:29.447Z,101564.38
2023-04-16T09:36:32.947Z,101562.50
2023-04-16T09:37:41.651Z,101574.88
2023-04-16T09:38:48.236Z,101577.19
2023-04-16T09:39:55.890Z,101574.38
2023-04-16T09:41:08.541Z,101575.81
2023-04-16T09:42:11.531Z,101568.25
2023-04-16T09:43:16.613Z,101571.38
2023-04-16T09:44:20.664Z,101569.84
2023-04-16T09:45:24.990Z,101565.72
2023-04-16T09:46:35.154Z,101563.91
2023-04-16T09:47:41.970Z,101559.97
2023-04-16T09:48:47.476Z,101561.28
2023-04-16T09:49:52.071Z,101562.63
2023-04-16T09:50:55.538Z,101560.63
2023-04-16T09:52:01.195Z,101565.50
2023-04-16T09:53:04.906Z,101561.91
2023-04-16T09:54:07.875Z,101563.59
2023-04-16T09:55:11.514Z,101564.31
2023-04-16T09:56:14.723Z,101571.72
2023-04-16T09:57:23.205Z,101569.06
2023-04-16T09:58:30.597Z,101570.19
2023-04-16T09:59:38.078Z,101562.44
2023-04-16T10:00:43.697Z,101567.63
2023-04-16T10:01:50.071Z,101568.84
2023-04-16T10:03:04.112Z,101554.09
2023-04-16T10:04:08.366Z,101556.91
2023-04-16T10:05:16.967Z,101553.19
2023-04-16T10:06:21.980Z,101552.72
2023-04-16T10:07:30.256Z,101557.47
2023-04-16T10:08:32.833Z,101549.59
2023-04-16T10:09:39.436Z,101554.84
2023-04-16T10:10:42.885Z,101556.38
2023-04-16T10:11:46.572Z,101552.16
2023-04-16T10:12:49.139Z,101553.09
2023-04-16T10:13:53.100Z,101561.78
2023-04-16T10:14:56.658Z,101567.63
2023-04-16T10:16:00.442Z,101564.19
2023-04-16T10:17:06.479Z,101563.69
2023-04-16T10:18:11.099Z,101555.59
2023-04-16T10:19:18.140Z,101552.31
2023-04-16T10:20:20.894Z,101552.16
2023-04-16T10:21:25.312Z,101555.44
2023-04-16T10:22:27.695Z,101540.22
2023-04-16T10:23:31.466Z,101547.78
2023-04-16T10:24:34.698Z,101545.44
2023-04-16T10:25:40.866Z,101542.41
2023-04-16T10:26:45.095Z,101549.13
2023-04-16T10:27:49.404Z,101553.69
2023-04-16T10:28:52.209Z,101541.16
2023-04-16T10:29:56.783Z,101551.06
2023-04-16T10:31:00.153Z,101549.09
2023-04-16T10:32:05.541Z,101545.94
2023-04-16T10:33:08.777Z,101552.56
2023-04-16T10:34:12.911Z,101547.28
2023-04-16T10:35:19.350Z,101542.66
2023-04-16T10:36:26.573Z,101545.84
2023-04-16T10:37:32.294Z,101551.38
2023-04-16T10:38:36.724Z,101540.16
2023-04-16T10:39:40.602Z,101537.06
2023-04-16T10:40:45.777Z,101542.09
2023-04-16T10:41:49.526Z,101549.75
2023-04-16T10:42:56.574Z,101534.00
2023-04-16T10:44:09.846Z,101539.16
2023-04-16T10:45:12.475Z,101536.97
2023-04-16T10:46:21.706Z,101539.66
2023-04-16T10:47:27.652Z,101537.81
2023-04-16T10:48:42.132Z,101529.28
2023-04-16T10:49:53.229Z,101534.91
2023-04-16T10:50:57.904Z,101530.78
2023-04-16T10:52:03.870Z,101539.66
2023-04-16T10:53:20.466Z,101528.66
2023-04-16T10:54:28.421Z,101525.88
2023-04-16T10:55:31.258Z,101518.22
2023-04-16T10:56:36.247Z,101528.22
2023-04-16T10:57:38.477Z,101525.69
2023-04-16T10:58:43.058Z,101517.66
2023-04-16T10:59:47.079Z,101518.84
2023-04-16T11:00:50.666Z,101520.69
2023-04-16T11:01:56.562Z,101524.59
2023-04-16T11:03:02.164Z,101524.28
2023-04-16T11:04:30.516Z,101521.00
2023-04-16T11:05:47.157Z,101522.91
2023-04-16T11:07:03.621Z,101520.94
2023-04-16T11:08:16.183Z,101507.88
2023-04-16T11:09:47.829Z,101501.72
2023-04-16T11:10:51.685Z,101500.59
2023-04-16T11:11:55.622Z,101498.69
2023-04-16T11:12:59.735Z,101500.28
2023-04-16T11:14:05.185Z,101493.50
2023-04-16T11:15:10.410Z,101499.88
2023-04-16T11:16:13.913Z,101492.94
2023-04-16T11:17:17.932Z,101491.88
2023-04-16T11:18:22.941Z,101490.25
2023-04-16T11:19:25.392Z,101485.19
2023-04-16T11:20:29.974Z,101487.78
2023-04-16T11:21:33.813Z,101493.31
2023-04-16T11:22:36.792Z,101496.44
2023-04-16T11:23:50.419Z,101487.81
2023-04-16T11:24:55.851Z,101491.97
2023-04-16T11:25:59.406Z,101498.91
2023-04-16T11:27:01.900Z,101496.69
2023-04-16T11:28:05.146Z,101493.16
2023-04-16T11:29:15.303Z,101499.97
2023-04-16T11:30:29.226Z,101491.59
2023-04-16T11:31:33.239Z,101496.56
2023-04-16T11:32:38.148Z,101488.72
2023-04-16T11:33:43.223Z,101481.59
2023-04-16T11:34:47.245Z,101487.13
2023-04-16T11:35:58.116Z,101479.81
2023-04-16T11:37:01.527Z,101486.59
2023-04-16T11:38:06.161Z,101478.22
2023-04-16T11:39:10.054Z,101476.31
2023-04-16T11:40:14.473Z,101481.50
2023-04-16T11:41:22.037Z,101477.28
2023-04-16T11:42:27.364Z,101478.97
2023-04-16T11:43:29.720Z,101478.94
2023-04-16T11:44:33.554Z,101483.66
2023-04-16T11:45:37.349Z,101479.97
2023-04-16T11:46:40.204Z,101474.63
2023-04-16T11:47:52.051Z,101480.25
2023-04-16T11:48:56.533Z,101484.47
2023-04-16T11:50:16.382Z,101481.06
2023-04-16T11:51:23.393Z,101473.13
2023-04-16T11:52:29.032Z,101484.50
2023-04-16T11:53:31.843Z,101480.09
2023-04-16T11:54:36.909Z,101473.25
2023-04-16T11:55:44.802Z,101473.53
2023-04-16T11:56:49.404Z,101464.00
2023-04-16T11:57:53.480Z,101469.59
2023-04-16T11:59:10.346Z,101461.91
2023-04-16T12:00:15.361Z,101454.19
2023-04-16T12:01:21.698Z,101456.00
2023-04-16T12:02:40.178Z,101447.72
2023-04-16T12:03:46.636Z,101451.16
2023-04-16T12:04:51.886Z,101448.53
2023-04-16T12:05:54.398Z,101442.91
2023-04-16T12:07:12.130Z,101440.97
2023-04-16T12:08:30.923Z,101453.25
2023-04-16T12:09:37.034Z,101451.69
2023-04-16T12:10:55.202Z,101450.19
2023-04-16T12:11:57.585Z,101451.75
2023-04-16T12:13:15.439Z,101444.50
2023-04-16T12:14:17.922Z,101452.47
2023-04-16T12:15:21.268Z,101446.91